Time;durP1;ratioP1;P1;durP2;ratioP2;P2;SDS_P1;SDS_P2;PMS_P1;PMS_P2;Temp;Humidity;BMP_temperature;BMP_pressure;BME280_temperature;BME280_humidity;BME280_pressure;Samples;Min_cycle;Max_cycle;Signal;HPM_P1;HPM_P2
2023/10/13 00:01:26;;;;;;;60.75;38.58;;;;;;;;;;5032394;28;20200;-75
2023/10/13 00:03:53;;;;;;;68.32;39.70;;;;;;;;;;5051732;28;20193;-74
2023/10/13 00:06:18;;;;;;;56.60;35.70;;;;;;;;;;5026149;28;20189;-74
2023/10/13 00:08:45;;;;;;;68.30;38.78;;;;;;;;;;5017195;28;20282;-75
2023/10/13 00:11:15;;;;;;;64.55;39.67;;;;;;;;;;5047551;28;20200;-73
2023/10/13 00:14:03;;;;;;;71.25;40.65;;;;;;;;;;5043781;28;20203;-74
2023/10/13 00:16:28;;;;;;;69.53;39.35;;;;;;;;;;5061598;28;20709;-74
2023/10/13 00:18:57;;;;;;;68.22;39.47;;;;;;;;;;5063419;28;20300;-74
2023/10/13 00:21:32;;;;;;;73.05;39.72;;;;;;;;;;5068264;28;20188;-75
2023/10/13 00:24:01;;;;;;;62.17;38.88;;;;;;;;;;5058511;28;20188;-75
2023/10/13 00:26:28;;;;;;;67.57;38.88;;;;;;;;;;5055708;28;20521;-76
2023/10/13 00:31:38;;;;;;;62.38;37.38;;;;;;;;;;5048359;28;20691;-72
2023/10/13 00:34:28;;;;;;;58.75;36.75;;;;;;;;;;5035172;28;20193;-75
2023/10/13 00:37:12;;;;;;;62.40;36.65;;;;;;;;;;5033342;28;20216;-75
2023/10/13 00:39:40;;;;;;;59.42;36.42;;;;;;;;;;5047873;28;20568;-74
2023/10/13 00:42:17;;;;;;;60.95;37.42;;;;;;;;;;5028587;28;20193;-74
2023/10/13 00:44:48;;;;;;;61.22;37.45;;;;;;;;;;5068893;28;20189;-75
2023/10/13 00:47:17;;;;;;;62.53;36.28;;;;;;;;;;5079265;28;20412;-75
2023/10/13 00:49:47;;;;;;;61.38;36.15;;;;;;;;;;5062009;28;20249;-72
2023/10/13 00:52:15;;;;;;;55.28;34.83;;;;;;;;;;5055866;28;20208;-72
2023/10/13 00:54:45;;;;;;;59.53;34.03;;;;;;;;;;5043115;28;20190;-73
2023/10/13 00:57:27;;;;;;;58.90;34.78;;;;;;;;;;5041903;28;20684;-76
2023/10/13 01:00:12;;;;;;;54.80;33.80;;;;;;;;;;5057780;28;20223;-74
2023/10/13 01:02:37;;;;;;;54.28;33.92;;;;;;;;;;5054757;28;20221;-75
2023/10/13 01:05:14;;;;;;;50.08;31.45;;;;;;;;;;5037501;28;20198;-75
2023/10/13 01:07:39;;;;;;;47.75;30.90;;;;;;;;;;5058478;28;20195;-75
2023/10/13 01:10:13;;;;;;;56.78;33.55;;;;;;;;;;5053071;28;20490;-70
2023/10/13 01:12:38;;;;;;;56.95;33.40;;;;;;;;;;5061742;28;20270;-73
2023/10/13 01:15:07;;;;;;;53.58;33.15;;;;;;;;;;5048748;28;20222;-75
2023/10/13 01:17:33;;;;;;;59.75;34.47;;;;;;;;;;5040348;28;20237;-75
2023/10/13 01:19:59;;;;;;;54.08;33.65;;;;;;;;;;5052257;28;20213;-75
2023/10/13 01:22:27;;;;;;;54.17;33.03;;;;;;;;;;5045081;28;20189;-74
2023/10/13 01:25:04;;;;;;;63.20;35.10;;;;;;;;;;5049929;28;20189;-76
2023/10/13 01:27:29;;;;;;;51.72;33.28;;;;;;;;;;5017646;28;20266;-74
2023/10/13 01:30:09;;;;;;;61.78;34.80;;;;;;;;;;5043415;28;20193;-75
2023/10/13 01:32:40;;;;;;;57.70;33.97;;;;;;;;;;5040495;28;20193;-75
2023/10/13 01:35:06;;;;;;;59.53;33.83;;;;;;;;;;5050343;28;20201;-74
2023/10/13 01:37:32;;;;;;;52.17;32.10;;;;;;;;;;5048344;28;20194;-74
2023/10/13 01:39:57;;;;;;;46.92;28.55;;;;;;;;;;5028201;28;20213;-72
2023/10/13 01:42:24;;;;;;;47.42;32.42;;;;;;;;;;5059412;28;20247;-71
2023/10/13 01:44:50;;;;;;;53.22;32.30;;;;;;;;;;5042079;28;20265;-75
2023/10/13 01:47:16;;;;;;;46.97;31.17;;;;;;;;;;5039341;28;20656;-75
2023/10/13 01:49:43;;;;;;;50.13;30.00;;;;;;;;;;5056491;28;20700;-74
2023/10/13 01:52:15;;;;;;;49.85;31.83;;;;;;;;;;5051727;28;20187;-75
2023/10/13 01:54:44;;;;;;;50.80;31.77;;;;;;;;;;5033555;28;20193;-75
2023/10/13 01:57:18;;;;;;;50.33;30.73;;;;;;;;;;5077001;28;20190;-74
2023/10/13 01:59:45;;;;;;;43.88;29.13;;;;;;;;;;5056294;28;20209;-75
2023/10/13 02:02:15;;;;;;;47.88;29.13;;;;;;;;;;5040992;28;20209;-72
2023/10/13 02:04:42;;;;;;;48.75;31.65;;;;;;;;;;5052036;28;20200;-75
2023/10/13 02:07:08;;;;;;;46.53;28.88;;;;;;;;;;5050773;28;20271;-76
2023/10/13 02:09:36;;;;;;;46.08;30.70;;;;;;;;;;5047829;28;20190;-72
2023/10/13 02:12:02;;;;;;;51.97;31.70;;;;;;;;;;5032549;28;20189;-75
2023/10/13 02:14:27;;;;;;;49.17;30.67;;;;;;;;;;5038102;28;20193;-74
2023/10/13 02:17:11;;;;;;;50.03;31.10;;;;;;;;;;5046042;28;20233;-75
2023/10/13 02:19:39;;;;;;;42.58;28.13;;;;;;;;;;5063730;28;20209;-73
2023/10/13 02:22:08;;;;;;;41.38;29.27;;;;;;;;;;5051727;28;20718;-71
2023/10/13 02:24:34;;;;;;;45.17;27.98;;;;;;;;;;5029686;28;20234;-74
2023/10/13 02:27:13;;;;;;;50.95;30.45;;;;;;;;;;5044773;28;20220;-73
2023/10/13 02:29:41;;;;;;;43.45;27.98;;;;;;;;;;5049520;28;20188;-73
2023/10/13 02:32:18;;;;;;;44.22;29.55;;;;;;;;;;5052428;28;20200;-74
2023/10/13 02:34:44;;;;;;;45.15;28.77;;;;;;;;;;5063057;28;20253;-75
2023/10/13 02:37:13;;;;;;;40.42;28.25;;;;;;;;;;5047646;28;20288;-75
2023/10/13 02:39:42;;;;;;;44.28;27.33;;;;;;;;;;5062548;28;20208;-72
2023/10/13 02:42:09;;;;;;;46.25;28.30;;;;;;;;;;5068687;28;20228;-74
2023/10/13 02:44:36;;;;;;;50.67;28.23;;;;;;;;;;5058311;28;20192;-74
2023/10/13 02:47:13;;;;;;;42.83;28.35;;;;;;;;;;5057174;28;20591;-74
2023/10/13 02:49:42;;;;;;;53.22;28.65;;;;;;;;;;5033959;28;20262;-72
2023/10/13 02:52:09;;;;;;;46.28;27.92;;;;;;;;;;5056260;28;20197;-72
2023/10/13 02:54:39;;;;;;;44.67;27.48;;;;;;;;;;5038715;28;20289;-73
2023/10/13 02:57:06;;;;;;;49.08;28.42;;;;;;;;;;5044914;28;20592;-75
2023/10/13 02:59:39;;;;;;;40.42;26.27;;;;;;;;;;5043511;28;20217;-75
2023/10/13 03:02:17;;;;;;;44.10;26.73;;;;;;;;;;5047133;28;20217;-75
2023/10/13 03:04:59;;;;;;;46.05;27.92;;;;;;;;;;5038791;28;20648;-74
2023/10/13 03:07:30;;;;;;;39.50;26.48;;;;;;;;;;5071567;28;20272;-75
2023/10/13 03:09:59;;;;;;;42.45;26.25;;;;;;;;;;5050419;28;20276;-75
2023/10/13 03:12:25;;;;;;;38.25;25.60;;;;;;;;;;5051895;28;20652;-75
2023/10/13 03:15:12;;;;;;;39.80;25.38;;;;;;;;;;5026001;28;20249;-75
2023/10/13 03:17:40;;;;;;;35.33;23.83;;;;;;;;;;5047119;28;20334;-72
2023/10/13 03:20:06;;;;;;;39.63;25.33;;;;;;;;;;5055119;28;20213;-75
2023/10/13 03:22:32;;;;;;;37.28;24.52;;;;;;;;;;5055227;28;20559;-74
2023/10/13 03:25:08;;;;;;;41.20;24.92;;;;;;;;;;5071679;28;20193;-72
2023/10/13 03:30:18;;;;;;;42.63;23.38;;;;;;;;;;5043519;28;20181;-72
2023/10/13 03:32:46;;;;;;;33.83;22.40;;;;;;;;;;5044138;28;20197;-74
2023/10/13 03:35:24;;;;;;;36.60;23.75;;;;;;;;;;5051488;28;20711;-74
2023/10/13 03:37:54;;;;;;;43.40;22.58;;;;;;;;;;5052741;28;20594;-75
2023/10/13 03:45:42;;;;;;;33.67;21.85;;;;;;;;;;5048418;28;20209;-75
2023/10/13 03:48:09;;;;;;;34.35;21.70;;;;;;;;;;5038912;28;20178;-75
2023/10/13 03:50:57;;;;;;;31.80;21.45;;;;;;;;;;5072071;28;20193;-74
2023/10/13 03:53:25;;;;;;;33.63;21.13;;;;;;;;;;5030549;28;20283;-75
2023/10/13 03:56:07;;;;;;;37.70;22.40;;;;;;;;;;5051192;28;20534;-75
2023/10/13 03:58:34;;;;;;;33.05;22.77;;;;;;;;;;5015795;28;20207;-75
2023/10/13 04:01:00;;;;;;;32.13;21.92;;;;;;;;;;5061137;28;20234;-75
2023/10/13 04:03:33;;;;;;;35.80;21.73;;;;;;;;;;5039164;28;20209;-76
2023/10/13 04:06:05;;;;;;;31.42;22.15;;;;;;;;;;5037844;28;20196;-75
2023/10/13 04:16:39;;;;;;;35.30;23.55;;;;;;;;;;5041631;28;20598;-76
2023/10/13 04:19:08;;;;;;;37.88;23.30;;;;;;;;;;5036950;28;20290;-76
2023/10/13 04:21:39;;;;;;;41.17;23.58;;;;;;;;;;5042000;28;20566;-75
2023/10/13 04:32:28;;;;;;;41.30;25.52;;;;;;;;;;5047178;28;20255;-75
2023/10/13 04:35:09;;;;;;;38.10;24.00;;;;;;;;;;5055335;28;20585;-75
2023/10/13 04:37:50;;;;;;;32.88;23.25;;;;;;;;;;5044384;28;20260;-76
2023/10/13 04:40:19;;;;;;;40.35;22.92;;;;;;;;;;5034725;28;20250;-75
2023/10/13 04:42:53;;;;;;;33.42;22.05;;;;;;;;;;5048043;28;20279;-77
2023/10/13 04:48:14;;;;;;;31.60;20.92;;;;;;;;;;5040363;28;20276;-75
2023/10/13 04:50:45;;;;;;;32.92;21.05;;;;;;;;;;5051688;28;20633;-76
2023/10/13 05:47:50;;;;;;;21.40;13.57;;;;;;;;;;5043816;28;20194;-74
2023/10/13 06:31:08;;;;;;;18.83;13.45;;;;;;;;;;5057980;28;20614;-73
2023/10/13 06:33:42;;;;;;;22.83;12.90;;;;;;;;;;5069542;28;20267;-72
2023/10/13 06:36:09;;;;;;;20.35;12.35;;;;;;;;;;5072915;28;20625;-73
2023/10/13 06:38:38;;;;;;;22.65;12.65;;;;;;;;;;5047568;28;20292;-73
2023/10/13 06:41:07;;;;;;;17.58;12.00;;;;;;;;;;5091313;28;20196;-73
2023/10/13 06:43:39;;;;;;;24.10;12.07;;;;;;;;;;5050900;28;20703;-75
2023/10/13 06:46:04;;;;;;;18.58;11.75;;;;;;;;;;5079179;28;20201;-73
2023/10/13 06:48:34;;;;;;;22.35;12.50;;;;;;;;;;5069339;28;20712;-72
2023/10/13 06:53:56;;;;;;;21.50;11.48;;;;;;;;;;5059851;28;20209;-74
2023/10/13 06:56:22;;;;;;;17.48;10.55;;;;;;;;;;5066491;28;20189;-74
2023/10/13 06:58:51;;;;;;;18.63;9.55;;;;;;;;;;5053366;28;20278;-73
2023/10/13 07:01:22;;;;;;;13.93;8.88;;;;;;;;;;5055138;28;20638;-75
2023/10/13 07:03:53;;;;;;;17.38;10.57;;;;;;;;;;5058780;28;20188;-73
2023/10/13 07:06:19;;;;;;;17.20;10.27;;;;;;;;;;5067272;28;20177;-73
2023/10/13 07:08:51;;;;;;;17.48;10.07;;;;;;;;;;5068579;28;20192;-74
2023/10/13 07:11:32;;;;;;;23.15;9.63;;;;;;;;;;5061115;28;20181;-75
2023/10/13 07:14:09;;;;;;;16.52;8.50;;;;;;;;;;5057356;28;20192;-74
2023/10/13 07:16:58;;;;;;;15.27;8.45;;;;;;;;;;5054665;28;20188;-74
2023/10/13 07:19:27;;;;;;;19.52;9.07;;;;;;;;;;5040802;28;20236;-75
2023/10/13 07:21:58;;;;;;;20.05;8.88;;;;;;;;;;5052608;28;20651;-74
2023/10/13 07:24:26;;;;;;;17.05;8.27;;;;;;;;;;5052805;28;20184;-74
2023/10/13 07:27:01;;;;;;;14.40;8.65;;;;;;;;;;5053526;28;20189;-74
2023/10/13 07:29:27;;;;;;;17.17;8.38;;;;;;;;;;5061409;28;20180;-74
2023/10/13 07:31:52;;;;;;;13.98;7.80;;;;;;;;;;5038142;28;20196;-75
2023/10/13 07:34:26;;;;;;;12.35;8.30;;;;;;;;;;5066668;28;20195;-74
2023/10/13 07:36:52;;;;;;;16.70;7.82;;;;;;;;;;5048447;28;20190;-74
2023/10/13 07:39:21;;;;;;;12.23;7.57;;;;;;;;;;5055676;28;20216;-74
2023/10/13 07:42:23;;;;;;;16.42;8.73;;;;;;;;;;5041756;28;20272;-72
2023/10/13 07:44:48;;;;;;;13.13;7.95;;;;;;;;;;5047588;28;20207;-72
2023/10/13 07:47:18;;;;;;;11.35;7.72;;;;;;;;;;5063395;28;20767;-72
2023/10/13 07:49:43;;;;;;;13.45;8.27;;;;;;;;;;5058058;28;20350;-73
2023/10/13 07:54:56;;;;;;;12.63;7.82;;;;;;;;;;5065853;28;20189;-72
2023/10/13 07:57:29;;;;;;;10.55;8.00;;;;;;;;;;5050361;28;20235;-75
2023/10/13 08:00:06;;;;;;;14.23;8.10;;;;;;;;;;5064881;28;20223;-71
2023/10/13 08:02:51;;;;;;;9.70;7.82;;;;;;;;;;5074600;28;20204;-73
2023/10/13 08:05:29;;;;;;;12.73;7.72;;;;;;;;;;5062992;28;20181;-74
2023/10/13 08:07:55;;;;;;;11.20;8.15;;;;;;;;;;5048258;28;20188;-73
2023/10/13 08:10:29;;;;;;;14.60;7.93;;;;;;;;;;5065852;28;20195;-72
2023/10/13 08:12:56;;;;;;;13.23;7.80;;;;;;;;;;5058069;28;20196;-75
2023/10/13 08:15:31;;;;;;;15.98;9.55;;;;;;;;;;5053634;28;20185;-74
2023/10/13 08:17:58;;;;;;;15.43;8.20;;;;;;;;;;5044647;28;20229;-75
2023/10/13 08:20:26;;;;;;;13.77;8.40;;;;;;;;;;5015713;28;20190;-72
2023/10/13 08:23:09;;;;;;;14.43;8.15;;;;;;;;;;5022777;28;20232;-73
2023/10/13 08:31:22;;;;;;;14.32;8.25;;;;;;;;;;4960054;28;20203;-72
2023/10/13 08:33:51;;;;;;;15.60;7.65;;;;;;;;;;5004003;28;20285;-75
2023/10/13 08:36:29;;;;;;;14.23;7.72;;;;;;;;;;5017675;28;20194;-72
2023/10/13 08:38:55;;;;;;;14.63;8.30;;;;;;;;;;5021192;28;20308;-76
2023/10/13 08:43:50;;;;;;;17.13;8.43;;;;;;;;;;5023566;28;20688;-76
2023/10/13 08:46:28;;;;;;;14.65;8.35;;;;;;;;;;5023740;28;20249;-74
2023/10/13 08:49:08;;;;;;;20.05;8.38;;;;;;;;;;4992411;28;20186;-74
2023/10/13 08:51:44;;;;;;;18.67;7.68;;;;;;;;;;4997213;28;20203;-73
2023/10/13 08:54:33;;;;;;;16.38;6.93;;;;;;;;;;5018669;28;20194;-75
2023/10/13 08:57:05;;;;;;;18.00;7.13;;;;;;;;;;5037190;28;20479;-74
2023/10/13 08:59:38;;;;;;;20.55;7.53;;;;;;;;;;5033009;28;20243;-73
2023/10/13 09:02:17;;;;;;;17.85;7.20;;;;;;;;;;5010872;28;20670;-73
2023/10/13 09:04:47;;;;;;;14.20;7.20;;;;;;;;;;5032428;28;20178;-73
2023/10/13 09:07:15;;;;;;;17.17;7.60;;;;;;;;;;5012397;28;20186;-74
2023/10/13 09:09:58;;;;;;;18.20;6.35;;;;;;;;;;5020516;28;20186;-71
2023/10/13 09:14:57;;;;;;;16.83;6.78;;;;;;;;;;5020402;28;20183;-71
2023/10/13 09:20:31;;;;;;;12.63;6.32;;;;;;;;;;5041328;28;20210;-71
2023/10/13 09:25:35;;;;;;;15.23;6.80;;;;;;;;;;5037748;28;20261;-74
2023/10/13 09:28:02;;;;;;;15.30;7.20;;;;;;;;;;5017995;28;20562;-71
2023/10/13 09:30:31;;;;;;;20.80;7.28;;;;;;;;;;5043013;28;20645;-73
2023/10/13 09:33:04;;;;;;;16.83;7.38;;;;;;;;;;5043770;28;20553;-72
2023/10/13 09:35:34;;;;;;;22.58;6.80;;;;;;;;;;5036979;28;20198;-73
2023/10/13 09:38:03;;;;;;;15.57;6.53;;;;;;;;;;5044504;28;20277;-70
2023/10/13 09:42:59;;;;;;;14.30;6.03;;;;;;;;;;5036286;28;20654;-73
2023/10/13 09:45:36;;;;;;;14.38;6.07;;;;;;;;;;5053151;28;20185;-71
2023/10/13 09:48:07;;;;;;;16.35;6.50;;;;;;;;;;5065089;28;20621;-72
2023/10/13 09:50:37;;;;;;;16.90;5.80;;;;;;;;;;5054577;28;20244;-72
2023/10/13 09:53:08;;;;;;;22.20;7.10;;;;;;;;;;5071079;28;20218;-72
2023/10/13 09:55:39;;;;;;;14.85;6.40;;;;;;;;;;5052708;28;20556;-73
2023/10/13 09:58:18;;;;;;;9.73;5.63;;;;;;;;;;5039928;28;20207;-72
2023/10/13 10:01:08;;;;;;;17.27;6.40;;;;;;;;;;5040532;28;20188;-72
2023/10/13 10:04:07;;;;;;;16.13;6.50;;;;;;;;;;5074964;28;20551;-74
2023/10/13 10:06:39;;;;;;;15.43;6.53;;;;;;;;;;5052400;28;20186;-72
2023/10/13 10:09:15;;;;;;;15.75;7.00;;;;;;;;;;5036624;28;20190;-72
2023/10/13 10:12:00;;;;;;;16.38;6.60;;;;;;;;;;5056593;28;20255;-72
2023/10/13 10:14:47;;;;;;;15.15;6.47;;;;;;;;;;5063608;28;20209;-73
2023/10/13 10:17:14;;;;;;;19.67;6.88;;;;;;;;;;5065934;28;20312;-70
2023/10/13 10:19:49;;;;;;;18.50;6.40;;;;;;;;;;5048138;28;20213;-69
2023/10/13 10:22:38;;;;;;;15.02;6.70;;;;;;;;;;5049565;28;20198;-69
2023/10/13 10:25:21;;;;;;;17.13;7.07;;;;;;;;;;5032927;28;20308;-69
2023/10/13 10:27:56;;;;;;;19.13;7.00;;;;;;;;;;5057166;28;20193;-70
2023/10/13 10:30:29;;;;;;;19.25;6.85;;;;;;;;;;5041788;28;20223;-70
2023/10/13 10:32:59;;;;;;;14.75;6.75;;;;;;;;;;5032682;28;20292;-71
2023/10/13 10:35:32;;;;;;;15.23;6.50;;;;;;;;;;5050235;28;20243;-69
2023/10/13 10:41:05;;;;;;;23.67;6.63;;;;;;;;;;5055146;28;20194;-69
2023/10/13 10:43:43;;;;;;;16.55;6.45;;;;;;;;;;5041782;28;20194;-69
2023/10/13 10:46:13;;;;;;;17.27;6.60;;;;;;;;;;5041766;28;20225;-71
2023/10/13 10:48:42;;;;;;;14.98;6.70;;;;;;;;;;5056252;28;20525;-69
2023/10/13 10:51:21;;;;;;;16.80;6.30;;;;;;;;;;5046752;28;20190;-70
2023/10/13 10:53:49;;;;;;;17.17;6.57;;;;;;;;;;5042595;28;20271;-70
2023/10/13 10:58:59;;;;;;;14.90;6.60;;;;;;;;;;5035700;28;20248;-70
2023/10/13 11:01:46;;;;;;;21.05;7.13;;;;;;;;;;5046905;28;20637;-70
2023/10/13 11:06:55;;;;;;;18.95;7.20;;;;;;;;;;5041316;28;20192;-72
2023/10/13 11:12:14;;;;;;;14.73;6.47;;;;;;;;;;5055446;28;20189;-69
2023/10/13 11:14:48;;;;;;;15.82;7.10;;;;;;;;;;5047103;28;20182;-71
2023/10/13 11:17:26;;;;;;;12.85;5.85;;;;;;;;;;5046905;28;20244;-70
2023/10/13 11:19:52;;;;;;;14.38;6.68;;;;;;;;;;5050717;28;20209;-71
2023/10/13 11:22:32;;;;;;;15.80;6.30;;;;;;;;;;5049073;28;20207;-69
2023/10/13 11:25:14;;;;;;;14.80;5.68;;;;;;;;;;5053018;28;20187;-70
2023/10/13 11:27:55;;;;;;;16.00;6.72;;;;;;;;;;5047275;28;20189;-69
2023/10/13 11:30:25;;;;;;;20.45;6.93;;;;;;;;;;5054250;28;20177;-69
2023/10/13 11:33:05;;;;;;;19.33;6.38;;;;;;;;;;5042256;28;20185;-69
2023/10/13 11:35:48;;;;;;;17.30;6.32;;;;;;;;;;5051450;28;20623;-69
2023/10/13 11:38:15;;;;;;;18.90;6.18;;;;;;;;;;5035596;28;20601;-69
2023/10/13 11:40:44;;;;;;;16.27;6.72;;;;;;;;;;5058044;28;20359;-70
2023/10/13 11:43:15;;;;;;;16.15;6.55;;;;;;;;;;5056369;28;20201;-71
2023/10/13 11:46:12;;;;;;;19.38;6.80;;;;;;;;;;5043009;28;20264;-71
2023/10/13 11:48:41;;;;;;;18.80;7.05;;;;;;;;;;5047319;28;20185;-69
2023/10/13 11:51:17;;;;;;;17.25;6.90;;;;;;;;;;5037825;28;20195;-70
2023/10/13 11:53:51;;;;;;;17.42;6.38;;;;;;;;;;5034503;28;22315;-73
2023/10/13 11:56:20;;;;;;;15.55;6.40;;;;;;;;;;5033152;28;20228;-71
2023/10/13 11:58:46;;;;;;;18.50;6.03;;;;;;;;;;5044172;28;20218;-70
2023/10/13 12:06:46;;;;;;;17.48;6.22;;;;;;;;;;5047610;28;20276;-69
2023/10/13 12:11:41;;;;;;;19.15;6.75;;;;;;;;;;5056002;28;20194;-72
2023/10/13 12:14:17;;;;;;;21.08;6.97;;;;;;;;;;5025869;28;20193;-70
2023/10/13 12:16:50;;;;;;;16.00;6.78;;;;;;;;;;5061765;28;20225;-72
2023/10/13 12:19:28;;;;;;;20.48;6.60;;;;;;;;;;5033924;28;20248;-73
2023/10/13 12:21:56;;;;;;;17.02;6.22;;;;;;;;;;5061859;28;20669;-71
2023/10/13 12:24:53;;;;;;;18.05;6.75;;;;;;;;;;5031920;28;20537;-72
2023/10/13 12:27:18;;;;;;;17.55;6.75;;;;;;;;;;5032798;28;20221;-72
2023/10/13 12:29:48;;;;;;;18.63;6.90;;;;;;;;;;5049158;28;20182;-70
2023/10/13 12:32:14;;;;;;;22.15;7.15;;;;;;;;;;5062240;28;20193;-70
2023/10/13 12:37:49;;;;;;;18.88;7.00;;;;;;;;;;5051469;28;20181;-76
2023/10/13 12:51:20;;;;;;;17.52;6.80;;;;;;;;;;5056918;28;20280;-73
2023/10/13 12:53:49;;;;;;;17.90;7.15;;;;;;;;;;5012845;28;20193;-70
2023/10/13 12:56:15;;;;;;;17.52;6.68;;;;;;;;;;5051108;28;20264;-68
2023/10/13 12:58:41;;;;;;;19.35;6.15;;;;;;;;;;5041896;28;20210;-69
2023/10/13 13:01:07;;;;;;;20.65;6.57;;;;;;;;;;5040879;28;20262;-68
2023/10/13 13:03:33;;;;;;;16.55;6.10;;;;;;;;;;5031624;28;20185;-71
2023/10/13 13:05:58;;;;;;;21.90;6.75;;;;;;;;;;5035718;28;20192;-69
2023/10/13 13:08:24;;;;;;;22.10;6.95;;;;;;;;;;5043170;28;20188;-67
2023/10/13 13:10:51;;;;;;;18.20;6.70;;;;;;;;;;5056827;28;20185;-68
2023/10/13 13:13:24;;;;;;;12.45;6.43;;;;;;;;;;5044639;28;20190;-74
2023/10/13 13:15:50;;;;;;;26.48;7.22;;;;;;;;;;5066182;28;20629;-73
2023/10/13 13:18:15;;;;;;;20.02;6.93;;;;;;;;;;5043645;28;20303;-68
2023/10/13 13:20:52;;;;;;;20.00;6.90;;;;;;;;;;5046390;28;20192;-70
2023/10/13 13:23:18;;;;;;;17.65;6.40;;;;;;;;;;5048834;28;20257;-69
2023/10/13 13:25:45;;;;;;;20.05;7.32;;;;;;;;;;5053714;28;20280;-69
2023/10/13 13:28:11;;;;;;;18.48;7.40;;;;;;;;;;5045444;28;20548;-72
2023/10/13 13:30:37;;;;;;;19.00;7.07;;;;;;;;;;5055403;28;20201;-72
2023/10/13 13:33:10;;;;;;;24.73;7.15;;;;;;;;;;5071362;28;20526;-70
2023/10/13 13:35:41;;;;;;;17.55;6.95;;;;;;;;;;5042744;28;20645;-71
2023/10/13 13:38:16;;;;;;;22.42;6.93;;;;;;;;;;5040518;28;20181;-72
2023/10/13 13:40:44;;;;;;;19.73;6.93;;;;;;;;;;5045298;28;20193;-70
2023/10/13 13:43:17;;;;;;;24.85;6.40;;;;;;;;;;5050350;28;20544;-72
2023/10/13 13:45:44;;;;;;;17.52;7.22;;;;;;;;;;5038314;28;20266;-71
2023/10/13 13:48:15;;;;;;;19.75;6.90;;;;;;;;;;5018416;28;20186;-70
2023/10/13 13:50:41;;;;;;;19.38;6.55;;;;;;;;;;5030047;28;20205;-73
2023/10/13 13:53:09;;;;;;;15.10;6.60;;;;;;;;;;5041706;28;20664;-72
2023/10/13 13:55:35;;;;;;;23.77;7.38;;;;;;;;;;5038274;28;20198;-69
2023/10/13 13:58:01;;;;;;;19.48;6.65;;;;;;;;;;5041091;28;20222;-70
2023/10/13 14:00:42;;;;;;;20.38;6.43;;;;;;;;;;5035795;28;20300;-70
2023/10/13 14:03:12;;;;;;;16.42;6.93;;;;;;;;;;5043774;28;20287;-71
2023/10/13 14:05:45;;;;;;;18.15;7.20;;;;;;;;;;5060564;28;20537;-71
2023/10/13 14:08:15;;;;;;;21.58;7.47;;;;;;;;;;5024421;28;20213;-69
2023/10/13 14:13:47;;;;;;;15.52;6.93;;;;;;;;;;5022602;28;20212;-73
2023/10/13 14:16:16;;;;;;;17.35;7.75;;;;;;;;;;5042076;28;20196;-70
2023/10/13 14:18:43;;;;;;;19.60;7.20;;;;;;;;;;5043292;28;20230;-69
2023/10/13 14:21:08;;;;;;;20.30;7.25;;;;;;;;;;5054362;28;20189;-69
2023/10/13 14:23:34;;;;;;;18.13;7.35;;;;;;;;;;5035913;28;20193;-69
2023/10/13 14:25:59;;;;;;;18.42;7.35;;;;;;;;;;5040388;28;20577;-69
2023/10/13 14:28:34;;;;;;;21.42;7.95;;;;;;;;;;5042207;28;20255;-71
2023/10/13 14:31:03;;;;;;;20.95;7.88;;;;;;;;;;5055028;28;20605;-72
2023/10/13 14:33:36;;;;;;;19.88;7.18;;;;;;;;;;5048033;28;20220;-73
2023/10/13 14:36:04;;;;;;;15.68;7.05;;;;;;;;;;5064001;28;20177;-72
2023/10/13 14:38:30;;;;;;;22.90;7.93;;;;;;;;;;5032169;28;20516;-71
2023/10/13 14:40:57;;;;;;;21.33;7.90;;;;;;;;;;5040523;28;20208;-70
2023/10/13 14:43:27;;;;;;;22.58;7.93;;;;;;;;;;5048720;28;20478;-76
2023/10/13 14:45:55;;;;;;;21.25;7.28;;;;;;;;;;5054827;28;20411;-74
2023/10/13 14:48:23;;;;;;;21.45;7.85;;;;;;;;;;5049740;28;20182;-73
2023/10/13 14:50:49;;;;;;;17.98;7.85;;;;;;;;;;5038959;28;20220;-73
2023/10/13 14:53:19;;;;;;;19.67;7.82;;;;;;;;;;5034776;28;20704;-73
2023/10/13 14:55:45;;;;;;;20.58;7.03;;;;;;;;;;5051523;28;20272;-74
2023/10/13 14:58:15;;;;;;;19.63;6.63;;;;;;;;;;5037694;28;20731;-75
2023/10/13 15:00:47;;;;;;;22.73;7.82;;;;;;;;;;5040369;28;20607;-75
2023/10/13 15:03:12;;;;;;;22.25;6.95;;;;;;;;;;5038882;28;20201;-76
2023/10/13 15:05:38;;;;;;;23.83;6.65;;;;;;;;;;5037523;28;20190;-77
2023/10/13 15:08:06;;;;;;;18.45;7.25;;;;;;;;;;5034608;28;20198;-74
2023/10/13 15:10:32;;;;;;;17.98;7.35;;;;;;;;;;5018030;28;20288;-72
2023/10/13 15:12:59;;;;;;;19.02;7.13;;;;;;;;;;5044162;28;20719;-73
2023/10/13 15:15:24;;;;;;;15.75;6.63;;;;;;;;;;5048296;28;20201;-73
2023/10/13 15:17:50;;;;;;;16.80;6.57;;;;;;;;;;5062091;28;20378;-76
2023/10/13 15:20:15;;;;;;;24.30;6.68;;;;;;;;;;5027731;28;20230;-74
2023/10/13 15:22:53;;;;;;;18.05;7.18;;;;;;;;;;5042883;28;20190;-74
2023/10/13 15:25:28;;;;;;;17.60;6.82;;;;;;;;;;5045895;28;20189;-77
2023/10/13 15:28:02;;;;;;;25.75;7.70;;;;;;;;;;5017050;28;20296;-76
2023/10/13 15:30:43;;;;;;;23.00;7.65;;;;;;;;;;5022817;28;20240;-78
2023/10/13 15:33:10;;;;;;;18.42;7.50;;;;;;;;;;5041102;28;20228;-77
2023/10/13 15:35:38;;;;;;;18.83;7.18;;;;;;;;;;5034161;28;20297;-77
2023/10/13 15:38:04;;;;;;;20.30;7.80;;;;;;;;;;5025975;28;20200;-74
2023/10/13 15:40:30;;;;;;;13.15;6.57;;;;;;;;;;5034814;28;20209;-76
2023/10/13 15:42:59;;;;;;;15.90;7.72;;;;;;;;;;5011550;28;20182;-75
2023/10/13 15:45:32;;;;;;;17.60;7.43;;;;;;;;;;5040001;28;20193;-73
2023/10/13 15:47:58;;;;;;;22.30;7.45;;;;;;;;;;5035468;28;20609;-75
2023/10/13 15:50:23;;;;;;;21.83;8.15;;;;;;;;;;5029262;28;20185;-74
2023/10/13 15:52:49;;;;;;;19.58;6.93;;;;;;;;;;5044216;28;20186;-73
2023/10/13 15:55:17;;;;;;;21.20;8.02;;;;;;;;;;5038992;28;20189;-76
2023/10/13 15:57:43;;;;;;;22.58;7.35;;;;;;;;;;5044536;28;20197;-74
2023/10/13 16:00:31;;;;;;;14.07;6.75;;;;;;;;;;5051491;28;20214;-74
2023/10/13 16:02:56;;;;;;;22.27;7.68;;;;;;;;;;5055439;28;20200;-74
2023/10/13 16:05:23;;;;;;;16.65;7.28;;;;;;;;;;5049881;28;20189;-73
2023/10/13 16:07:52;;;;;;;24.42;8.02;;;;;;;;;;5046783;28;20197;-75
2023/10/13 16:10:21;;;;;;;16.50;7.82;;;;;;;;;;5031422;28;20672;-74
2023/10/13 16:12:47;;;;;;;19.52;8.48;;;;;;;;;;5043692;28;20241;-74
2023/10/13 16:15:13;;;;;;;16.60;7.55;;;;;;;;;;5066057;28;20272;-74
2023/10/13 16:17:43;;;;;;;15.80;8.23;;;;;;;;;;5031762;28;20584;-74
2023/10/13 16:20:15;;;;;;;21.27;8.23;;;;;;;;;;5036281;28;20344;-74
2023/10/13 16:22:45;;;;;;;21.75;8.25;;;;;;;;;;5030626;28;20239;-76
2023/10/13 16:25:16;;;;;;;16.83;8.02;;;;;;;;;;5048932;28;20378;-76
2023/10/13 16:27:43;;;;;;;20.60;8.32;;;;;;;;;;5047449;28;20572;-75
2023/10/13 16:30:19;;;;;;;14.57;7.82;;;;;;;;;;5045534;28;20185;-75
2023/10/13 16:32:49;;;;;;;28.42;9.05;;;;;;;;;;5029591;28;20254;-75
2023/10/13 16:35:17;;;;;;;23.83;9.73;;;;;;;;;;5012301;28;20398;-74
2023/10/13 16:37:51;;;;;;;20.75;9.55;;;;;;;;;;5044166;28;20751;-75
2023/10/13 16:40:18;;;;;;;18.35;9.52;;;;;;;;;;5042797;28;20332;-74
2023/10/13 16:42:48;;;;;;;23.30;9.63;;;;;;;;;;5040260;28;20196;-74
2023/10/13 16:45:14;;;;;;;19.85;9.32;;;;;;;;;;5014011;28;20177;-75
2023/10/13 16:47:58;;;;;;;22.38;10.38;;;;;;;;;;5049114;28;20200;-76
2023/10/13 16:50:23;;;;;;;22.80;11.27;;;;;;;;;;5013921;28;20170;-77
2023/10/13 16:52:49;;;;;;;22.65;9.57;;;;;;;;;;5024237;28;20189;-77
2023/10/13 16:55:19;;;;;;;23.70;10.15;;;;;;;;;;5048061;28;20174;-76
2023/10/13 17:00:51;;;;;;;20.30;10.45;;;;;;;;;;4712211;27;9999690;-74
2023/10/13 17:03:16;;;;;;;21.17;10.23;;;;;;;;;;5064920;28;20559;-76
2023/10/13 17:05:42;;;;;;;23.80;9.48;;;;;;;;;;5098657;27;20181;-73
2023/10/13 17:08:08;;;;;;;23.08;9.52;;;;;;;;;;5069811;28;20200;-73
2023/10/13 17:10:37;;;;;;;22.98;10.32;;;;;;;;;;5081923;28;20172;-71
2023/10/13 17:13:06;;;;;;;23.15;9.23;;;;;;;;;;5073467;28;20916;-73
2023/10/13 17:15:34;;;;;;;17.90;9.25;;;;;;;;;;5075249;28;20219;-70
2023/10/13 17:18:00;;;;;;;17.50;8.45;;;;;;;;;;5076682;28;20185;-71
2023/10/13 17:20:26;;;;;;;22.42;8.85;;;;;;;;;;5073154;28;20686;-70
2023/10/13 17:22:51;;;;;;;15.88;8.55;;;;;;;;;;5067577;28;20185;-71
2023/10/13 17:25:17;;;;;;;15.50;7.95;;;;;;;;;;5078084;28;20184;-70
2023/10/13 17:27:44;;;;;;;21.95;8.13;;;;;;;;;;5074422;28;20189;-70
2023/10/13 17:30:11;;;;;;;19.90;8.07;;;;;;;;;;5071008;28;20653;-71
2023/10/13 17:32:36;;;;;;;12.70;7.80;;;;;;;;;;5083584;28;20510;-70
2023/10/13 17:35:03;;;;;;;18.83;8.02;;;;;;;;;;5073332;28;20262;-69
2023/10/13 17:37:29;;;;;;;24.27;8.00;;;;;;;;;;5085788;28;20494;-70
2023/10/13 17:39:56;;;;;;;16.48;8.07;;;;;;;;;;5072434;28;20209;-71
2023/10/13 17:42:21;;;;;;;24.17;8.50;;;;;;;;;;5076917;28;20715;-74
2023/10/13 17:44:47;;;;;;;21.52;8.80;;;;;;;;;;5076337;28;20310;-71
2023/10/13 17:47:14;;;;;;;19.48;8.57;;;;;;;;;;5079688;28;20185;-72
2023/10/13 17:49:40;;;;;;;21.38;7.70;;;;;;;;;;5078772;28;20579;-74
2023/10/13 17:52:07;;;;;;;20.65;8.18;;;;;;;;;;5086384;28;20284;-72
2023/10/13 17:54:35;;;;;;;20.38;8.70;;;;;;;;;;5084655;28;20210;-73
2023/10/13 17:57:06;;;;;;;24.00;8.57;;;;;;;;;;5081749;28;20234;-73